Warning: Undefined array key 4 in /home/r122164/public_html/weather/weather-stations.php on line 14

Weather in selectable METAR weather stations Station search

1) Select the Continent / Group:

[Europe]  [Asia]  [Africa]  [North America]  [South America]  
[Central America and Caribbean]  [Oceania]  [Antarctica]  
2) Select the Weather station (City):


METAR = EFHK 311020Z 28013KT 9999 FEW040 16/05 Q1010 NOSIG

STATIONEFHK
NAMEHelsinki/Vantaa Arpt, UU, FI
OBSERVED31.05.2023 13:20 (31.05.2023 10:20 UTC), 29 min ago
TEMPERATURE16.0°C ( 61°F)
WINDCHILL14.7 °C (58 °F)
WINDW at 6.7 m/s (24.12 km/h)
HUMIDITY48%
PRESSURE1009.8 hPa
Click here to search the weather station or to give the station identifier
(four-character ICAO Location Indicator) for weather data.